createdAt,value
2023-05-12T00:03:22.982Z,1.90
2023-05-12T00:08:28.172Z,2.15
2023-05-12T00:13:36.105Z,2.40
2023-05-12T00:18:41.318Z,2.17
2023-05-12T00:23:46.705Z,2.28
2023-05-12T00:28:54.510Z,1.48
2023-05-12T00:33:59.708Z,2.15
2023-05-12T00:39:04.952Z,1.80
2023-05-12T00:44:12.673Z,2.05
2023-05-12T00:54:22.716Z,1.77
2023-05-12T00:59:30.916Z,2.15
2023-05-12T01:04:36.658Z,2.13
2023-05-12T01:09:42.019Z,1.90
2023-05-12T01:14:49.926Z,1.75
2023-05-12T01:20:00.736Z,2.33
2023-05-12T01:25:07.950Z,1.30
2023-05-12T01:30:20.433Z,2.63
2023-05-12T01:35:25.716Z,1.77
2023-05-12T01:40:31.060Z,2.05
2023-05-12T01:45:39.063Z,2.38
2023-05-12T01:50:44.526Z,1.90
2023-05-12T01:55:49.777Z,2.15
2023-05-12T02:00:57.525Z,2.45
2023-05-12T02:06:02.842Z,1.50
2023-05-12T02:11:09.200Z,2.05
2023-05-12T02:16:17.426Z,1.90
2023-05-12T02:21:22.678Z,1.77
2023-05-12T02:26:27.834Z,2.42
2023-05-12T02:31:35.809Z,2.65
2023-05-12T02:36:41.125Z,2.10
2023-05-12T02:41:46.319Z,2.08
2023-05-12T02:46:54.241Z,1.92
2023-05-12T02:51:59.374Z,2.08
2023-05-12T02:57:08.224Z,2.05
2023-05-12T03:02:16.315Z,2.08
2023-05-12T03:07:21.587Z,3.13
2023-05-12T03:12:29.158Z,2.10
2023-05-12T03:17:37.107Z,1.95
2023-05-12T03:22:42.593Z,2.33
2023-05-12T03:27:50.309Z,1.90
2023-05-12T03:38:03.413Z,2.05
2023-05-12T03:43:11.124Z,2.25
2023-05-12T03:53:23.977Z,2.20
2023-05-12T03:58:29.391Z,1.65
2023-05-12T04:03:37.679Z,2.63
2023-05-12T04:08:42.886Z,1.83
2023-05-12T04:13:48.127Z,1.92
2023-05-12T04:18:58.970Z,1.90
2023-05-12T04:24:04.306Z,2.38
2023-05-12T04:29:09.527Z,1.30
2023-05-12T04:34:17.385Z,1.48
2023-05-12T04:39:22.682Z,1.80
2023-05-12T04:44:27.906Z,1.35
2023-05-12T04:49:35.692Z,2.05
2023-05-12T04:59:45.912Z,1.45
2023-05-12T05:04:53.837Z,1.75
2023-05-12T05:09:58.989Z,1.55
2023-05-12T05:15:04.298Z,1.90
2023-05-12T05:20:15.461Z,2.17
2023-05-12T05:25:21.761Z,1.65
2023-05-12T05:30:27.059Z,1.48
2023-05-12T05:35:34.719Z,1.98
2023-05-12T05:40:52.028Z,2.08
2023-05-12T05:45:59.319Z,1.70
2023-05-12T05:51:08.144Z,0.75
2023-05-12T05:56:13.437Z,0.50
2023-05-12T06:01:19.027Z,1.27
2023-05-12T06:06:26.757Z,1.60
2023-05-12T06:11:31.900Z,1.17
2023-05-12T06:16:37.071Z,1.20
2023-05-12T06:21:44.830Z,1.75
2023-05-12T06:26:49.934Z,1.35
2023-05-12T06:31:55.976Z,1.92
2023-05-12T06:37:03.924Z,1.73
2023-05-12T06:42:09.854Z,1.65
2023-05-12T06:47:15.705Z,2.00
2023-05-12T06:52:24.338Z,2.40
2023-05-12T06:57:29.501Z,2.25
2023-05-12T07:02:35.304Z,1.17
2023-05-12T07:07:43.220Z,1.95
2023-05-12T07:12:50.651Z,2.00
2023-05-12T07:17:56.238Z,1.30
2023-05-12T07:23:05.076Z,1.45
2023-05-12T07:28:10.264Z,1.85
2023-05-12T07:33:16.175Z,1.50
2023-05-12T07:38:24.955Z,2.38
2023-05-12T07:43:30.998Z,1.58
2023-05-12T07:48:40.459Z,3.28
2023-05-12T07:53:49.047Z,2.42
2023-05-12T07:58:54.969Z,2.85
2023-05-12T08:04:01.796Z,2.58
2023-05-12T08:09:10.158Z,1.90
2023-05-12T08:14:17.251Z,2.00
2023-05-12T08:19:22.892Z,1.50
2023-05-12T08:24:31.431Z,1.70
2023-05-12T08:29:37.335Z,1.80
2023-05-12T08:34:46.627Z,1.40
2023-05-12T08:39:57.010Z,1.67
2023-05-12T08:45:05.198Z,1.77
2023-05-12T08:50:13.747Z,1.95
2023-05-12T08:55:26.311Z,2.25
2023-05-12T09:00:35.708Z,2.00
2023-05-12T09:05:41.619Z,1.98
2023-05-12T09:10:50.363Z,2.25
2023-05-12T09:15:59.772Z,2.47
2023-05-12T09:21:05.823Z,2.58
2023-05-12T09:26:13.980Z,4.60
2023-05-12T09:31:21.300Z,1.92
2023-05-12T09:36:27.779Z,4.65
2023-05-12T09:41:39.186Z,7.80
2023-05-12T09:46:45.000Z,3.53
2023-05-12T09:51:50.977Z,2.95
2023-05-12T09:57:02.698Z,2.95
2023-05-12T10:02:10.360Z,4.32
2023-05-12T10:07:17.635Z,3.30
2023-05-12T10:12:28.293Z,2.78
2023-05-12T10:17:35.933Z,2.72
2023-05-12T10:22:43.048Z,2.65
2023-05-12T10:27:53.583Z,2.53
2023-05-12T10:32:59.736Z,2.40
2023-05-12T10:38:07.778Z,2.35
2023-05-12T10:43:25.282Z,3.83
2023-05-12T10:48:32.882Z,4.80
2023-05-12T10:53:49.100Z,2.92
2023-05-12T10:59:20.256Z,5.32
2023-05-12T11:04:26.942Z,2.33
2023-05-12T11:09:33.113Z,2.40
2023-05-12T11:14:43.648Z,1.88
2023-05-12T11:19:50.541Z,1.90
2023-05-12T11:24:56.620Z,1.98
2023-05-12T11:30:06.010Z,1.80
2023-05-12T11:35:13.378Z,1.70
2023-05-12T11:40:21.101Z,1.75
2023-05-12T11:45:32.606Z,1.80
2023-05-12T11:50:41.135Z,1.80
2023-05-12T11:55:57.868Z,1.73
2023-05-12T12:01:16.380Z,1.83
2023-05-12T12:06:23.366Z,1.60
2023-05-12T12:11:32.485Z,1.88
2023-05-12T12:16:41.097Z,3.22
2023-05-12T12:21:46.947Z,3.38
2023-05-12T12:26:52.876Z,2.30
2023-05-12T12:32:01.500Z,2.20
2023-05-12T12:37:07.567Z,2.40
2023-05-12T12:42:14.543Z,1.85
2023-05-12T12:47:24.561Z,0.82
2023-05-12T12:52:31.369Z,3.45
2023-05-12T12:57:37.389Z,4.05
2023-05-12T13:02:47.819Z,2.25
2023-05-12T13:07:53.852Z,1.73
2023-05-12T13:13:02.422Z,1.17
2023-05-12T13:18:11.901Z,2.47
2023-05-12T13:23:17.831Z,2.58
2023-05-12T13:28:23.658Z,1.52
2023-05-12T13:33:32.529Z,2.10
2023-05-12T13:38:38.531Z,1.95
2023-05-12T13:43:44.820Z,2.30
2023-05-12T13:48:53.639Z,2.28
2023-05-12T13:54:03.490Z,2.15
2023-05-12T13:59:10.690Z,1.83
2023-05-12T14:04:19.372Z,2.47
2023-05-12T14:09:25.958Z,2.60
2023-05-12T14:14:33.038Z,2.30
2023-05-12T14:19:41.456Z,1.90
2023-05-12T14:24:47.351Z,2.65
2023-05-12T14:29:53.360Z,2.25
2023-05-12T14:35:01.984Z,1.08
2023-05-12T14:40:12.652Z,3.83
2023-05-12T14:45:18.909Z,3.72
2023-05-12T14:50:29.432Z,2.38
2023-05-12T14:55:35.458Z,2.10
2023-05-12T15:00:41.531Z,3.05
2023-05-12T15:06:04.921Z,2.00
2023-05-12T15:11:12.200Z,2.05
2023-05-12T15:16:20.379Z,2.33
2023-05-12T15:21:29.051Z,2.63
2023-05-12T15:26:36.267Z,2.25
2023-05-12T15:31:43.502Z,2.15
2023-05-12T15:36:52.930Z,2.63
2023-05-12T15:42:07.385Z,2.58
2023-05-12T15:47:13.582Z,2.95
2023-05-12T15:52:23.447Z,3.22
2023-05-12T15:57:29.499Z,6.43
2023-05-12T16:02:36.432Z,2.88
2023-05-12T16:07:44.976Z,2.78
2023-05-12T16:12:53.066Z,2.30
2023-05-12T16:18:02.256Z,2.45
2023-05-12T16:23:11.275Z,2.00
2023-05-12T16:28:17.460Z,2.75
2023-05-12T16:33:23.408Z,2.38
2023-05-12T16:38:33.490Z,2.15
2023-05-12T16:43:39.759Z,1.38
2023-05-12T16:48:46.485Z,2.45
2023-05-12T16:53:55.012Z,2.83
2023-05-12T16:59:02.156Z,2.38
2023-05-12T17:04:08.939Z,2.80
2023-05-12T17:09:18.222Z,3.28
2023-05-12T17:14:26.825Z,2.95
2023-05-12T17:19:34.112Z,2.47
2023-05-12T17:24:48.577Z,3.08
2023-05-12T17:29:55.199Z,3.03
2023-05-12T17:35:03.400Z,3.30
2023-05-12T17:40:17.953Z,3.08
2023-05-12T17:45:24.198Z,3.05
2023-05-12T17:50:32.476Z,2.75
2023-05-12T17:55:41.476Z,2.97
2023-05-12T18:00:47.636Z,3.67
2023-05-12T18:05:54.473Z,3.80
2023-05-12T18:11:04.544Z,3.80
2023-05-12T18:16:21.721Z,3.33
2023-05-12T18:21:34.513Z,3.60
2023-05-12T18:26:43.421Z,4.32
2023-05-12T18:31:51.458Z,3.63
2023-05-12T18:37:02.677Z,3.45
2023-05-12T18:42:11.953Z,4.85
2023-05-12T18:47:17.923Z,4.43
2023-05-12T18:52:24.642Z,4.47
2023-05-12T18:57:33.368Z,4.43
2023-05-12T19:02:53.927Z,3.72
2023-05-12T19:08:01.775Z,4.50
2023-05-12T19:13:13.845Z,4.22
2023-05-12T19:18:22.928Z,4.35
2023-05-12T19:23:31.807Z,4.32
2023-05-12T19:28:48.794Z,4.15
2023-05-12T19:33:58.049Z,4.50
2023-05-12T19:39:09.777Z,6.10
2023-05-12T19:44:20.007Z,4.35
2023-05-12T19:49:27.960Z,4.65
2023-05-12T19:54:34.807Z,4.00
2023-05-12T19:59:43.982Z,4.45
2023-05-12T20:04:54.095Z,3.47
2023-05-12T20:10:01.113Z,3.83
2023-05-12T20:15:12.106Z,3.38
2023-05-12T20:20:18.960Z,4.00
2023-05-12T20:25:28.115Z,4.15
2023-05-12T20:30:37.046Z,4.93
2023-05-12T20:35:43.160Z,4.95
2023-05-12T20:40:49.353Z,4.55
2023-05-12T20:45:58.364Z,4.55
2023-05-12T20:51:14.048Z,4.30
2023-05-12T20:56:21.060Z,3.70
2023-05-12T21:01:29.773Z,3.97
2023-05-12T21:06:40.042Z,4.32
2023-05-12T21:11:50.019Z,3.88
2023-05-12T21:16:59.500Z,4.40
2023-05-12T21:22:05.784Z,3.88
2023-05-12T21:27:12.704Z,3.95
2023-05-12T21:32:21.323Z,3.70
2023-05-12T21:37:27.968Z,4.10
2023-05-12T21:42:34.015Z,4.60
2023-05-12T21:47:44.949Z,3.40
2023-05-12T21:52:53.057Z,3.80
2023-05-12T21:58:05.193Z,4.45
2023-05-12T22:03:15.029Z,3.47
2023-05-12T22:08:21.753Z,3.92
2023-05-12T22:13:28.054Z,3.45
2023-05-12T22:18:37.915Z,5.72
2023-05-12T22:23:43.428Z,4.10
2023-05-12T22:28:48.557Z,3.65
2023-05-12T22:33:56.907Z,3.67
2023-05-12T22:39:02.503Z,3.15
2023-05-12T22:44:08.553Z,3.42
2023-05-12T22:49:16.540Z,3.35
2023-05-12T22:59:27.010Z,3.80
2023-05-12T23:04:35.149Z,3.95
2023-05-12T23:09:40.403Z,4.60
2023-05-12T23:14:45.972Z,4.95
2023-05-12T23:19:55.601Z,3.75
2023-05-12T23:25:01.206Z,4.20
2023-05-12T23:30:06.840Z,4.28
2023-05-12T23:35:14.920Z,4.25
2023-05-12T23:40:20.789Z,3.05
2023-05-12T23:45:26.251Z,4.20
2023-05-12T23:50:34.158Z,3.67
